createdAt,value
2022-10-25T00:00:22.058Z,1001.5
2022-10-25T00:01:22.166Z,1001.57
2022-10-25T00:02:22.122Z,1001.54
2022-10-25T00:03:22.058Z,1001.49
2022-10-25T00:05:22.047Z,1001.58
2022-10-25T00:06:22.056Z,1001.57
2022-10-25T00:07:22.082Z,1001.56
2022-10-25T00:08:22.081Z,1001.56
2022-10-25T00:09:22.053Z,1001.57
2022-10-25T00:10:28.065Z,1001.51
2022-10-25T00:11:22.062Z,1001.55
2022-10-25T00:12:22.073Z,1001.58
2022-10-25T00:13:22.158Z,1001.6
2022-10-25T00:14:22.062Z,1001.58
2022-10-25T00:15:22.056Z,1001.58
2022-10-25T00:16:22.077Z,1001.62
2022-10-25T00:17:22.322Z,1001.63
2022-10-25T00:18:22.087Z,1001.61
2022-10-25T00:19:22.051Z,1001.59
2022-10-25T00:20:22.058Z,1001.63
2022-10-25T00:21:22.056Z,1001.6
2022-10-25T00:22:22.055Z,1001.57
2022-10-25T00:23:22.076Z,1001.59
2022-10-25T00:24:22.070Z,1001.57
2022-10-25T00:25:22.072Z,1001.61
2022-10-25T00:26:22.054Z,1001.61
2022-10-25T00:27:22.058Z,1001.59
2022-10-25T00:28:22.285Z,1001.66
2022-10-25T00:29:24.814Z,1001.62
2022-10-25T00:30:22.082Z,1001.56
2022-10-25T00:31:22.147Z,1001.59
2022-10-25T00:32:22.051Z,1001.57
2022-10-25T00:33:22.059Z,1001.62
2022-10-25T00:34:22.264Z,1001.62
2022-10-25T00:35:22.349Z,1001.59
2022-10-25T00:36:22.091Z,1001.62
2022-10-25T00:37:22.249Z,1001.6
2022-10-25T00:38:22.502Z,1001.6
2022-10-25T00:39:22.278Z,1001.61
2022-10-25T00:40:22.137Z,1001.63
2022-10-25T00:41:22.284Z,1001.66
2022-10-25T00:42:22.068Z,1001.68
2022-10-25T00:43:22.054Z,1001.66
2022-10-25T00:44:22.360Z,1001.69
2022-10-25T00:45:22.063Z,1001.68
2022-10-25T00:46:22.072Z,1001.66
2022-10-25T00:47:22.135Z,1001.63
2022-10-25T00:48:22.053Z,1001.7
2022-10-25T00:49:22.056Z,1001.73
2022-10-25T00:50:22.074Z,1001.67
2022-10-25T00:51:22.060Z,1001.66
2022-10-25T00:52:22.055Z,1001.67
2022-10-25T00:53:22.053Z,1001.7
2022-10-25T00:55:22.064Z,1001.73
2022-10-25T00:56:22.047Z,1001.76
2022-10-25T00:57:22.064Z,1001.73
2022-10-25T00:58:22.059Z,1001.74
2022-10-25T00:59:22.073Z,1001.76
2022-10-25T01:00:22.175Z,1001.78
2022-10-25T01:01:22.148Z,1001.75
2022-10-25T01:02:22.176Z,1001.76
2022-10-25T01:03:22.060Z,1001.78
2022-10-25T01:04:22.069Z,1001.72
2022-10-25T01:05:22.065Z,1001.81
2022-10-25T01:06:22.065Z,1001.82
2022-10-25T01:07:22.050Z,1001.81
2022-10-25T01:08:22.066Z,1001.84
2022-10-25T01:09:22.264Z,1001.85
2022-10-25T01:10:22.257Z,1001.86
2022-10-25T01:11:22.284Z,1001.86
2022-10-25T01:12:22.330Z,1001.86
2022-10-25T01:13:22.350Z,1001.82
2022-10-25T01:14:22.446Z,1001.88
2022-10-25T01:15:22.341Z,1001.85
2022-10-25T01:16:22.365Z,1001.86
2022-10-25T01:17:22.347Z,1001.85
2022-10-25T01:18:22.347Z,1001.87
2022-10-25T01:19:22.416Z,1001.86
2022-10-25T01:20:22.365Z,1001.85
2022-10-25T01:21:22.366Z,1001.81
2022-10-25T01:22:22.329Z,1001.84
2022-10-25T01:23:22.371Z,1001.89
2022-10-25T01:24:22.614Z,1001.87
2022-10-25T01:25:22.425Z,1001.88
2022-10-25T01:26:23.407Z,1001.85
2022-10-25T01:27:22.488Z,1001.83
2022-10-25T01:28:22.608Z,1001.87
2022-10-25T01:29:22.372Z,1001.84
2022-10-25T01:30:22.371Z,1001.84
2022-10-25T01:31:22.512Z,1001.88
2022-10-25T01:32:22.779Z,1001.84
2022-10-25T01:33:22.016Z,1001.85
2022-10-25T01:34:22.373Z,1001.82
2022-10-25T01:35:22.628Z,1001.89
2022-10-25T01:36:22.329Z,1001.88
2022-10-25T01:37:22.998Z,1001.87
2022-10-25T01:38:22.617Z,1001.82
2022-10-25T01:39:22.050Z,1001.86
2022-10-25T01:40:22.066Z,1001.91
2022-10-25T01:41:22.089Z,1001.88
2022-10-25T01:42:22.063Z,1001.89
2022-10-25T01:43:22.059Z,1001.88
2022-10-25T01:44:22.054Z,1001.88
2022-10-25T01:45:22.053Z,1001.88
2022-10-25T01:46:22.081Z,1001.92
2022-10-25T01:47:22.073Z,1001.92
2022-10-25T01:48:22.046Z,1001.91
2022-10-25T01:49:22.075Z,1001.99
2022-10-25T01:50:22.053Z,1001.97
2022-10-25T01:51:22.127Z,1001.99
2022-10-25T01:52:22.068Z,1002.02
2022-10-25T01:53:22.068Z,1001.98
2022-10-25T01:54:22.061Z,1002.04
2022-10-25T01:55:22.091Z,1001.98
2022-10-25T01:56:22.156Z,1001.99
2022-10-25T01:57:22.399Z,1001.99
2022-10-25T01:58:22.046Z,1001.99
2022-10-25T01:59:22.397Z,1001.98
2022-10-25T02:00:22.338Z,1001.99
2022-10-25T02:01:22.229Z,1001.99
2022-10-25T02:02:22.280Z,1002.02
2022-10-25T02:03:22.246Z,1002
2022-10-25T02:04:22.106Z,1002.02
2022-10-25T02:05:22.185Z,1002.01
2022-10-25T02:06:22.215Z,1001.98
2022-10-25T02:07:22.340Z,1001.98
2022-10-25T02:08:22.211Z,1002
2022-10-25T02:09:22.499Z,1002.03
2022-10-25T02:10:23.225Z,1002.05
2022-10-25T02:11:22.154Z,1002.03
2022-10-25T02:12:22.415Z,1002.05
2022-10-25T02:13:22.390Z,1002.02
2022-10-25T02:14:22.091Z,1002.05
2022-10-25T02:15:22.327Z,1002.03
2022-10-25T02:16:22.247Z,1002.05
2022-10-25T02:17:22.590Z,1002.04
2022-10-25T02:18:22.283Z,1002.05
2022-10-25T02:19:22.546Z,1002.06
2022-10-25T02:20:22.772Z,1002.09
2022-10-25T02:21:23.017Z,1002.07
2022-10-25T02:22:22.336Z,1002.09
2022-10-25T02:23:22.290Z,1002.12
2022-10-25T02:24:22.605Z,1002.08
2022-10-25T02:25:22.044Z,1002.08
2022-10-25T02:26:22.207Z,1002.09
2022-10-25T02:27:22.504Z,1002.06
2022-10-25T02:28:22.064Z,1002.08
2022-10-25T02:29:22.060Z,1002.09
2022-10-25T02:30:22.285Z,1002.05
2022-10-25T02:31:22.373Z,1002.05
2022-10-25T02:32:22.164Z,1002.07
2022-10-25T02:33:22.326Z,1002.09
2022-10-25T02:34:22.061Z,1002.1
2022-10-25T02:35:22.051Z,1002.12
2022-10-25T02:36:22.053Z,1002.08
2022-10-25T02:37:22.069Z,1002.1
2022-10-25T02:38:22.062Z,1002.1
2022-10-25T02:39:22.083Z,1002.09
2022-10-25T02:40:22.058Z,1002.11
2022-10-25T02:41:22.049Z,1002.11
2022-10-25T02:42:22.156Z,1002.14
2022-10-25T02:43:22.099Z,1002.16
2022-10-25T02:44:22.045Z,1002.09
2022-10-25T02:45:22.048Z,1002.14
2022-10-25T02:46:22.054Z,1002.12
2022-10-25T02:47:22.056Z,1002.15
2022-10-25T02:48:22.066Z,1002.12
2022-10-25T02:49:22.063Z,1002.2
2022-10-25T02:50:22.064Z,1002.14
2022-10-25T02:51:22.130Z,1002.09
2022-10-25T02:52:22.067Z,1002.16
2022-10-25T02:53:22.188Z,1002.17
2022-10-25T02:54:22.156Z,1002.16
2022-10-25T02:55:22.060Z,1002.14
2022-10-25T02:56:22.043Z,1002.18
2022-10-25T02:57:22.081Z,1002.15
2022-10-25T02:58:22.058Z,1002.17
2022-10-25T02:59:22.063Z,1002.15
2022-10-25T03:00:22.060Z,1002.16
2022-10-25T03:01:22.171Z,1002.17
2022-10-25T03:02:22.098Z,1002.19
2022-10-25T03:03:22.062Z,1002.16
2022-10-25T03:04:22.174Z,1002.21
2022-10-25T03:05:22.058Z,1002.18
2022-10-25T03:06:22.233Z,1002.18
2022-10-25T03:07:22.043Z,1002.25
2022-10-25T03:08:22.105Z,1002.16
2022-10-25T03:09:22.047Z,1002.21
2022-10-25T03:10:22.050Z,1002.24
2022-10-25T03:11:22.058Z,1002.23
2022-10-25T03:12:22.053Z,1002.23
2022-10-25T03:13:22.070Z,1002.22
2022-10-25T03:14:22.062Z,1002.25
2022-10-25T03:15:22.057Z,1002.27
2022-10-25T03:16:22.070Z,1002.29
2022-10-25T03:17:22.272Z,1002.33
2022-10-25T03:18:22.068Z,1002.32
2022-10-25T03:19:22.062Z,1002.27
2022-10-25T03:20:22.058Z,1002.25
2022-10-25T03:21:22.045Z,1002.28
2022-10-25T03:22:22.050Z,1002.28
2022-10-25T03:23:22.072Z,1002.35
2022-10-25T03:24:22.057Z,1002.31
2022-10-25T03:25:22.062Z,1002.32
2022-10-25T03:26:22.061Z,1002.39
2022-10-25T03:27:22.060Z,1002.35
2022-10-25T03:28:22.282Z,1002.38
2022-10-25T03:29:22.047Z,1002.39
2022-10-25T03:30:22.046Z,1002.37
2022-10-25T03:31:22.050Z,1002.42
2022-10-25T03:32:22.048Z,1002.43
2022-10-25T03:33:22.106Z,1002.37
2022-10-25T03:34:22.072Z,1002.41
2022-10-25T03:35:22.076Z,1002.46
2022-10-25T03:36:22.163Z,1002.46
2022-10-25T03:37:22.102Z,1002.5
2022-10-25T03:38:22.078Z,1002.54
2022-10-25T03:39:22.053Z,1002.51
2022-10-25T03:40:22.061Z,1002.52
2022-10-25T03:41:22.057Z,1002.52
2022-10-25T03:42:22.084Z,1002.5
2022-10-25T03:44:22.059Z,1002.49
2022-10-25T03:45:22.166Z,1002.5
2022-10-25T03:46:22.384Z,1002.5
2022-10-25T03:47:22.187Z,1002.5
2022-10-25T03:48:22.369Z,1002.57
2022-10-25T03:49:22.075Z,1002.54
2022-10-25T03:50:22.064Z,1002.56
2022-10-25T03:51:22.296Z,1002.59
2022-10-25T03:52:22.099Z,1002.58
2022-10-25T03:53:22.285Z,1002.6
2022-10-25T03:54:26.849Z,1002.61
2022-10-25T03:55:22.068Z,1002.63
2022-10-25T03:56:22.149Z,1002.64
2022-10-25T03:57:22.384Z,1002.66
2022-10-25T03:58:22.653Z,1002.67
2022-10-25T03:59:22.059Z,1002.67
2022-10-25T04:00:22.061Z,1002.68
2022-10-25T04:01:22.153Z,1002.67
2022-10-25T04:02:22.054Z,1002.68
2022-10-25T04:03:22.058Z,1002.68
2022-10-25T04:04:22.057Z,1002.68
2022-10-25T04:05:22.064Z,1002.73
2022-10-25T04:06:22.056Z,1002.77
2022-10-25T04:07:22.064Z,1002.75
2022-10-25T04:08:22.063Z,1002.79
2022-10-25T04:09:22.057Z,1002.81
2022-10-25T04:10:22.065Z,1002.77
2022-10-25T04:11:22.249Z,1002.77
2022-10-25T04:12:22.049Z,1002.78
2022-10-25T04:13:22.056Z,1002.78
2022-10-25T04:14:22.053Z,1002.76
2022-10-25T04:15:22.055Z,1002.85
2022-10-25T04:16:22.048Z,1002.82
2022-10-25T04:17:22.062Z,1002.87
2022-10-25T04:18:22.057Z,1002.86
2022-10-25T04:19:22.438Z,1002.85
2022-10-25T04:20:22.256Z,1002.86
2022-10-25T04:21:22.132Z,1002.91
2022-10-25T04:22:22.391Z,1002.93
2022-10-25T04:23:22.292Z,1002.97
2022-10-25T04:24:22.362Z,1002.94
2022-10-25T04:25:22.328Z,1002.89
2022-10-25T04:26:22.047Z,1002.9
2022-10-25T04:27:22.361Z,1002.86
2022-10-25T04:28:22.249Z,1002.85
2022-10-25T04:29:22.578Z,1002.87
2022-10-25T04:30:22.580Z,1002.87
2022-10-25T04:31:22.930Z,1002.87
2022-10-25T04:32:23.201Z,1002.87
2022-10-25T04:33:22.275Z,1002.9
2022-10-25T04:34:22.603Z,1002.91
2022-10-25T04:35:22.198Z,1002.9
2022-10-25T04:36:22.078Z,1002.88
2022-10-25T04:37:22.359Z,1002.84
2022-10-25T04:38:22.048Z,1002.89
2022-10-25T04:39:22.200Z,1002.88
2022-10-25T04:40:27.403Z,1002.93
2022-10-25T04:41:23.076Z,1002.89
2022-10-25T04:42:22.550Z,1002.95
2022-10-25T04:43:22.777Z,1002.91
2022-10-25T04:44:22.032Z,1002.94
2022-10-25T04:45:22.274Z,1002.94
2022-10-25T04:46:22.878Z,1002.94
2022-10-25T04:47:21.877Z,1002.93
2022-10-25T04:48:22.236Z,1002.95
2022-10-25T04:49:22.510Z,1002.94
2022-10-25T04:50:22.437Z,1002.98
2022-10-25T04:51:22.179Z,1002.92
2022-10-25T04:52:22.980Z,1002.94
2022-10-25T04:53:22.742Z,1002.99
2022-10-25T04:54:22.157Z,1002.97
2022-10-25T04:55:22.055Z,1002.99
2022-10-25T04:56:22.070Z,1003.01
2022-10-25T04:57:22.077Z,1002.97
2022-10-25T04:58:22.054Z,1002.97
2022-10-25T04:59:22.062Z,1003
2022-10-25T05:00:22.050Z,1002.99
2022-10-25T05:01:22.115Z,1003
2022-10-25T05:02:22.079Z,1002.97
2022-10-25T05:03:22.068Z,1002.99
2022-10-25T05:04:22.075Z,1003
2022-10-25T05:05:22.131Z,1002.98
2022-10-25T05:06:22.103Z,1003
2022-10-25T05:07:22.086Z,1003
2022-10-25T05:08:22.070Z,1002.97
2022-10-25T05:09:22.050Z,1002.98
2022-10-25T05:10:22.064Z,1002.99
2022-10-25T05:11:22.063Z,1003.03
2022-10-25T05:12:22.092Z,1002.99
2022-10-25T05:13:22.063Z,1003.02
2022-10-25T05:14:22.064Z,1003.05
2022-10-25T05:15:22.072Z,1003.07
2022-10-25T05:16:22.059Z,1003.06
2022-10-25T05:17:22.098Z,1003.09
2022-10-25T05:18:22.076Z,1003.05
2022-10-25T05:19:22.063Z,1003.08
2022-10-25T05:20:22.064Z,1003.06
2022-10-25T05:21:22.090Z,1003.08
2022-10-25T05:22:22.091Z,1003.12
2022-10-25T05:23:22.055Z,1003.18
2022-10-25T05:24:22.049Z,1003.16
2022-10-25T05:25:22.054Z,1003.18
2022-10-25T05:26:22.065Z,1003.17
2022-10-25T05:27:22.327Z,1003.22
2022-10-25T05:28:22.089Z,1003.2
2022-10-25T05:29:22.064Z,1003.22
2022-10-25T05:30:22.112Z,1003.2
2022-10-25T05:31:22.443Z,1003.2
2022-10-25T05:32:22.100Z,1003.2
2022-10-25T05:33:22.044Z,1003.2
2022-10-25T05:34:22.331Z,1003.24
2022-10-25T05:35:22.058Z,1003.27
2022-10-25T05:36:22.290Z,1003.23
2022-10-25T05:37:22.222Z,1003.26
2022-10-25T05:38:22.529Z,1003.22
2022-10-25T05:39:22.838Z,1003.29
2022-10-25T05:40:22.058Z,1003.27
2022-10-25T05:41:22.441Z,1003.33
2022-10-25T05:42:22.072Z,1003.32
2022-10-25T05:43:22.371Z,1003.34
2022-10-25T05:44:22.231Z,1003.34
2022-10-25T05:45:22.045Z,1003.38
2022-10-25T05:46:22.265Z,1003.38
2022-10-25T05:47:22.094Z,1003.39
2022-10-25T05:48:22.062Z,1003.39
2022-10-25T05:49:22.183Z,1003.43
2022-10-25T05:50:22.064Z,1003.44
2022-10-25T05:51:32.809Z,1003.4
2022-10-25T05:52:22.114Z,1003.39
2022-10-25T05:53:22.057Z,1003.41
2022-10-25T05:54:22.051Z,1003.45
2022-10-25T05:55:22.051Z,1003.45
2022-10-25T05:56:22.055Z,1003.46
2022-10-25T05:57:22.072Z,1003.49
2022-10-25T05:58:22.056Z,1003.52
2022-10-25T05:59:22.069Z,1003.56
2022-10-25T06:00:22.070Z,1003.59
2022-10-25T06:01:22.219Z,1003.6
2022-10-25T06:02:22.189Z,1003.58
2022-10-25T06:03:22.063Z,1003.61
2022-10-25T06:04:22.303Z,1003.66
2022-10-25T06:05:22.062Z,1003.64
2022-10-25T06:06:22.041Z,1003.65
2022-10-25T06:07:22.062Z,1003.68
2022-10-25T06:08:22.051Z,1003.65
2022-10-25T06:09:22.079Z,1003.69
2022-10-25T06:10:22.074Z,1003.74
2022-10-25T06:11:22.067Z,1003.76
2022-10-25T06:12:22.066Z,1003.76
2022-10-25T06:13:22.054Z,1003.77
2022-10-25T06:14:22.082Z,1003.77
2022-10-25T06:15:22.058Z,1003.83
2022-10-25T06:16:22.056Z,1003.85
2022-10-25T06:17:22.067Z,1003.82
2022-10-25T06:18:22.064Z,1003.84
2022-10-25T06:19:22.059Z,1003.85
2022-10-25T06:20:22.054Z,1003.81
2022-10-25T06:21:22.059Z,1003.82
2022-10-25T06:22:22.051Z,1003.84
2022-10-25T06:23:22.078Z,1003.83
2022-10-25T06:24:22.172Z,1003.85
2022-10-25T06:25:22.060Z,1003.88
2022-10-25T06:26:22.105Z,1003.85
2022-10-25T06:27:22.055Z,1003.88
2022-10-25T06:28:22.050Z,1003.86
2022-10-25T06:29:22.046Z,1003.9
2022-10-25T06:30:22.076Z,1003.91
2022-10-25T06:31:22.066Z,1003.96
2022-10-25T06:32:22.055Z,1003.97
2022-10-25T06:33:28.217Z,1003.96
2022-10-25T06:34:22.067Z,1003.93
2022-10-25T06:35:22.121Z,1003.99
2022-10-25T06:36:22.048Z,1003.99
2022-10-25T06:37:22.092Z,1003.99
2022-10-25T06:38:22.082Z,1004.03
2022-10-25T06:39:22.186Z,1004.05
2022-10-25T06:40:23.074Z,1004.03
2022-10-25T06:41:22.046Z,1004.02
2022-10-25T06:42:22.045Z,1004.04
2022-10-25T06:43:22.061Z,1004.04
2022-10-25T06:44:22.050Z,1004.06
2022-10-25T06:45:22.055Z,1004.05
2022-10-25T06:46:22.059Z,1004.05
2022-10-25T06:47:22.092Z,1004.06
2022-10-25T06:48:22.060Z,1004.09
2022-10-25T06:49:22.265Z,1004.09
2022-10-25T06:50:22.214Z,1004.12
2022-10-25T06:51:22.263Z,1004.17
2022-10-25T06:52:22.335Z,1004.2
2022-10-25T06:53:22.463Z,1004.16
2022-10-25T06:54:22.343Z,1004.23
2022-10-25T06:55:22.238Z,1004.29
2022-10-25T06:56:22.364Z,1004.27
2022-10-25T06:57:22.247Z,1004.32
2022-10-25T06:58:22.523Z,1004.3
2022-10-25T06:59:22.476Z,1004.3
2022-10-25T07:00:22.783Z,1004.32
2022-10-25T07:01:22.515Z,1004.34
2022-10-25T07:02:22.773Z,1004.29
2022-10-25T07:03:23.415Z,1004.35
2022-10-25T07:04:22.238Z,1004.41
2022-10-25T07:05:22.092Z,1004.45
2022-10-25T07:06:22.317Z,1004.45
2022-10-25T07:07:22.126Z,1004.46
2022-10-25T07:08:22.328Z,1004.51
2022-10-25T07:09:22.667Z,1004.51
2022-10-25T07:10:22.062Z,1004.48
2022-10-25T07:11:22.102Z,1004.49
2022-10-25T07:12:22.215Z,1004.47
2022-10-25T07:13:22.060Z,1004.52
2022-10-25T07:14:22.069Z,1004.53
2022-10-25T07:15:23.138Z,1004.55
2022-10-25T07:16:22.056Z,1004.53
2022-10-25T07:17:22.053Z,1004.51
2022-10-25T07:18:22.053Z,1004.56
2022-10-25T07:19:22.051Z,1004.59
2022-10-25T07:20:22.084Z,1004.62
2022-10-25T07:21:22.053Z,1004.65
2022-10-25T07:22:22.068Z,1004.64
2022-10-25T07:23:22.079Z,1004.64
2022-10-25T07:24:22.126Z,1004.66
2022-10-25T07:25:22.065Z,1004.65
2022-10-25T07:26:22.192Z,1004.64
2022-10-25T07:27:22.078Z,1004.66
2022-10-25T07:28:22.052Z,1004.68
2022-10-25T07:29:22.057Z,1004.71
2022-10-25T07:30:22.063Z,1004.76
2022-10-25T07:31:22.067Z,1004.71
2022-10-25T07:32:22.071Z,1004.7
2022-10-25T07:33:22.068Z,1004.68
2022-10-25T07:34:22.058Z,1004.66
2022-10-25T07:35:22.058Z,1004.72
2022-10-25T07:36:22.050Z,1004.68
2022-10-25T07:37:22.209Z,1004.72
2022-10-25T07:38:28.119Z,1004.75
2022-10-25T07:39:22.054Z,1004.74
2022-10-25T07:40:22.046Z,1004.76
2022-10-25T07:41:22.067Z,1004.75
2022-10-25T07:42:22.057Z,1004.72
2022-10-25T07:43:22.055Z,1004.75
2022-10-25T07:44:28.061Z,1004.72
2022-10-25T07:45:33.082Z,1004.71
2022-10-25T07:46:22.056Z,1004.67
2022-10-25T07:47:22.079Z,1004.72
2022-10-25T07:48:22.161Z,1004.74
2022-10-25T07:49:22.057Z,1004.73
2022-10-25T07:50:22.138Z,1004.72
2022-10-25T07:51:22.145Z,1004.79
2022-10-25T07:52:22.347Z,1004.77
2022-10-25T07:53:22.581Z,1004.76
2022-10-25T07:54:23.008Z,1004.79
2022-10-25T07:55:22.494Z,1004.82
2022-10-25T07:56:25.820Z,1004.88
2022-10-25T07:57:22.215Z,1004.87
2022-10-25T07:58:22.371Z,1004.92
2022-10-25T07:59:22.692Z,1004.88
2022-10-25T08:00:22.067Z,1004.87
2022-10-25T08:01:22.413Z,1004.9
2022-10-25T08:02:26.618Z,1004.89
2022-10-25T08:03:21.929Z,1004.87
2022-10-25T08:04:22.252Z,1004.85
2022-10-25T08:05:23.158Z,1004.86
2022-10-25T08:06:22.685Z,1004.88
2022-10-25T08:07:22.056Z,1004.92
2022-10-25T08:08:22.049Z,1004.93
2022-10-25T08:09:38.188Z,1004.94
2022-10-25T08:10:22.077Z,1004.96
2022-10-25T08:11:22.057Z,1004.97
2022-10-25T08:12:25.618Z,1004.98
2022-10-25T08:13:22.049Z,1004.95
2022-10-25T08:15:22.051Z,1004.99
2022-10-25T08:16:22.046Z,1004.97
2022-10-25T08:17:22.046Z,1004.96
2022-10-25T08:18:22.056Z,1004.98
2022-10-25T08:19:22.074Z,1004.98
2022-10-25T08:20:37.541Z,1005
2022-10-25T08:21:22.072Z,1005
2022-10-25T08:22:22.069Z,1004.96
2022-10-25T08:23:22.069Z,1005
2022-10-25T08:24:23.053Z,1004.96
2022-10-25T08:25:29.234Z,1004.93
2022-10-25T08:26:22.060Z,1004.96
2022-10-25T08:27:22.076Z,1004.97
2022-10-25T08:28:22.039Z,1004.97
2022-10-25T08:29:22.056Z,1004.98
2022-10-25T08:30:22.053Z,1004.97
2022-10-25T08:31:22.132Z,1004.97
2022-10-25T08:32:22.212Z,1004.95
2022-10-25T08:33:22.041Z,1004.93
2022-10-25T08:34:22.046Z,1004.95
2022-10-25T08:35:22.047Z,1004.95
2022-10-25T08:36:22.052Z,1004.99
2022-10-25T08:37:22.050Z,1004.95
2022-10-25T08:38:22.068Z,1004.98
2022-10-25T08:39:22.048Z,1005
2022-10-25T08:40:22.045Z,1004.98
2022-10-25T08:41:22.059Z,1004.98
2022-10-25T08:42:22.235Z,1004.97
2022-10-25T08:43:22.332Z,1004.99
2022-10-25T08:44:22.039Z,1004.95
2022-10-25T08:45:22.338Z,1004.95
2022-10-25T08:46:22.040Z,1004.93
2022-10-25T08:47:22.046Z,1004.93
2022-10-25T08:48:22.233Z,1004.94
2022-10-25T08:49:22.282Z,1004.94
2022-10-25T08:50:22.580Z,1004.99
2022-10-25T08:51:22.173Z,1004.94
2022-10-25T08:52:22.201Z,1004.96
2022-10-25T08:53:22.442Z,1004.94
2022-10-25T08:54:22.147Z,1004.98
2022-10-25T08:55:22.311Z,1005.03
2022-10-25T08:56:22.054Z,1004.98
2022-10-25T08:57:22.363Z,1005
2022-10-25T08:58:22.174Z,1004.99
2022-10-25T08:59:22.053Z,1005.03
2022-10-25T09:00:22.272Z,1005.03
2022-10-25T09:01:22.148Z,1005.04
2022-10-25T09:02:22.212Z,1005.05
2022-10-25T09:03:22.062Z,1005.07
2022-10-25T09:04:22.110Z,1005.09
2022-10-25T09:05:22.177Z,1005.07
2022-10-25T09:06:22.067Z,1005.08
2022-10-25T09:07:22.046Z,1005.09
2022-10-25T09:08:22.049Z,1005.08
2022-10-25T09:09:22.063Z,1005.12
2022-10-25T09:10:22.045Z,1005.14
2022-10-25T09:11:22.059Z,1005.09
2022-10-25T09:12:22.043Z,1005.07
2022-10-25T09:13:22.086Z,1005.08
2022-10-25T09:14:22.043Z,1005.1
2022-10-25T09:15:22.148Z,1005.12
2022-10-25T09:16:22.115Z,1005.1
2022-10-25T09:17:22.063Z,1005.12
2022-10-25T09:18:22.309Z,1005.18
2022-10-25T09:19:22.041Z,1005.15
2022-10-25T09:20:22.080Z,1005.18
2022-10-25T09:21:25.062Z,1005.21
2022-10-25T09:22:22.050Z,1005.21
2022-10-25T09:23:23.059Z,1005.26
2022-10-25T09:24:22.050Z,1005.26
2022-10-25T09:25:22.046Z,1005.25
2022-10-25T09:26:22.047Z,1005.24
2022-10-25T09:27:22.155Z,1005.27
2022-10-25T09:28:22.098Z,1005.31
2022-10-25T09:29:22.057Z,1005.29
2022-10-25T09:30:22.043Z,1005.3
2022-10-25T09:31:22.045Z,1005.33
2022-10-25T09:32:22.056Z,1005.32
2022-10-25T09:33:22.052Z,1005.36
2022-10-25T09:34:22.058Z,1005.38
2022-10-25T09:35:22.042Z,1005.33
2022-10-25T09:36:22.057Z,1005.39
2022-10-25T09:37:22.047Z,1005.38
2022-10-25T09:38:22.058Z,1005.38
2022-10-25T09:39:22.045Z,1005.39
2022-10-25T09:40:22.149Z,1005.42
2022-10-25T09:41:22.206Z,1005.43
2022-10-25T09:42:22.045Z,1005.44
2022-10-25T09:43:22.044Z,1005.47
2022-10-25T09:44:22.044Z,1005.45
2022-10-25T09:45:22.075Z,1005.42
2022-10-25T09:46:22.044Z,1005.41
2022-10-25T09:47:22.070Z,1005.44
2022-10-25T09:48:22.045Z,1005.43
2022-10-25T09:49:22.061Z,1005.45
2022-10-25T09:50:22.054Z,1005.41
2022-10-25T09:51:22.056Z,1005.39
2022-10-25T09:52:22.047Z,1005.4
2022-10-25T09:53:26.056Z,1005.41
2022-10-25T09:54:22.038Z,1005.41
2022-10-25T09:55:22.036Z,1005.43
2022-10-25T09:56:22.038Z,1005.37
2022-10-25T09:57:22.275Z,1005.37
2022-10-25T09:58:22.114Z,1005.37
2022-10-25T09:59:22.035Z,1005.4
2022-10-25T10:00:22.457Z,1005.41
2022-10-25T10:01:22.738Z,1005.46
2022-10-25T10:02:22.254Z,1005.42
2022-10-25T10:03:22.450Z,1005.38
2022-10-25T10:04:22.135Z,1005.43
2022-10-25T10:05:22.039Z,1005.44
2022-10-25T10:06:22.232Z,1005.45
2022-10-25T10:07:22.042Z,1005.42
2022-10-25T10:08:22.357Z,1005.44
2022-10-25T10:09:22.119Z,1005.45
2022-10-25T10:10:22.422Z,1005.42
2022-10-25T10:11:22.285Z,1005.34
2022-10-25T10:12:22.056Z,1005.4
2022-10-25T10:13:22.305Z,1005.37
2022-10-25T10:14:22.490Z,1005.38
2022-10-25T10:15:22.292Z,1005.43
2022-10-25T10:16:22.102Z,1005.45
2022-10-25T10:17:22.370Z,1005.45
2022-10-25T10:18:22.196Z,1005.42
2022-10-25T10:19:22.497Z,1005.52
2022-10-25T10:20:22.285Z,1005.52
2022-10-25T10:21:22.099Z,1005.56
2022-10-25T10:22:22.419Z,1005.51
2022-10-25T10:23:22.045Z,1005.48
2022-10-25T10:24:22.333Z,1005.56
2022-10-25T10:25:22.100Z,1005.55
2022-10-25T10:26:22.348Z,1005.57
2022-10-25T10:27:22.094Z,1005.62
2022-10-25T10:28:22.041Z,1005.55
2022-10-25T10:29:22.045Z,1005.6
2022-10-25T10:30:22.040Z,1005.56
2022-10-25T10:31:22.038Z,1005.59
2022-10-25T10:32:22.071Z,1005.58
2022-10-25T10:33:22.048Z,1005.55
2022-10-25T10:34:22.050Z,1005.59
2022-10-25T10:35:22.054Z,1005.67
2022-10-25T10:36:22.040Z,1005.71
2022-10-25T10:37:22.066Z,1005.7
2022-10-25T10:38:22.053Z,1005.73
2022-10-25T10:39:22.045Z,1005.77
2022-10-25T10:40:22.047Z,1005.76
2022-10-25T10:41:22.038Z,1005.77
2022-10-25T10:42:22.085Z,1005.76
2022-10-25T10:43:22.047Z,1005.74
2022-10-25T10:44:22.057Z,1005.78
2022-10-25T10:45:22.052Z,1005.72
2022-10-25T10:46:22.053Z,1005.78
2022-10-25T10:47:22.049Z,1005.75
2022-10-25T10:48:22.068Z,1005.76
2022-10-25T10:49:22.059Z,1005.8
2022-10-25T10:50:22.189Z,1005.77
2022-10-25T10:51:43.371Z,1005.77
2022-10-25T10:53:22.030Z,1005.78
2022-10-25T10:54:22.051Z,1005.81
2022-10-25T10:55:22.056Z,1005.78
2022-10-25T10:56:22.045Z,1005.82
2022-10-25T10:57:22.046Z,1005.8
2022-10-25T10:58:22.050Z,1005.85
2022-10-25T10:59:22.095Z,1005.81
2022-10-25T11:00:22.063Z,1005.8
2022-10-25T11:01:22.154Z,1005.82
2022-10-25T11:02:23.317Z,1005.82
2022-10-25T11:03:22.044Z,1005.79
2022-10-25T11:04:28.058Z,1005.84
2022-10-25T11:05:22.039Z,1005.86
2022-10-25T11:06:22.043Z,1005.88
2022-10-25T11:07:22.046Z,1005.87
2022-10-25T11:08:22.040Z,1005.9
2022-10-25T11:09:22.119Z,1005.9
2022-10-25T11:10:22.055Z,1005.86
2022-10-25T11:11:22.053Z,1005.89
2022-10-25T11:12:22.070Z,1005.88
2022-10-25T11:13:22.066Z,1005.87
2022-10-25T11:14:22.044Z,1005.83
2022-10-25T11:15:22.060Z,1005.84
2022-10-25T11:16:29.076Z,1005.82
2022-10-25T11:17:22.041Z,1005.83
2022-10-25T11:18:22.055Z,1005.81
2022-10-25T11:19:22.046Z,1005.85
2022-10-25T11:20:22.057Z,1005.88
2022-10-25T11:21:22.048Z,1005.87
2022-10-25T11:22:22.045Z,1005.85
2022-10-25T11:23:22.056Z,1005.86
2022-10-25T11:24:22.050Z,1005.85
2022-10-25T11:25:22.048Z,1005.88
2022-10-25T11:26:22.043Z,1005.86
2022-10-25T11:27:22.039Z,1005.86
2022-10-25T11:28:22.043Z,1005.85
2022-10-25T11:29:22.048Z,1005.85
2022-10-25T11:30:22.785Z,1005.85
2022-10-25T11:31:22.057Z,1005.85
2022-10-25T11:32:22.061Z,1005.84
2022-10-25T11:33:22.076Z,1005.83
2022-10-25T11:34:22.058Z,1005.83
2022-10-25T11:35:22.071Z,1005.89
2022-10-25T11:36:22.039Z,1005.88
2022-10-25T11:37:22.045Z,1005.87
2022-10-25T11:38:22.048Z,1005.87
2022-10-25T11:39:22.038Z,1005.89
2022-10-25T11:40:22.037Z,1005.89
2022-10-25T11:41:22.056Z,1005.82
2022-10-25T11:42:22.058Z,1005.86
2022-10-25T11:43:22.056Z,1005.81
2022-10-25T11:44:22.047Z,1005.84
2022-10-25T11:45:22.045Z,1005.83
2022-10-25T11:46:22.042Z,1005.82
2022-10-25T11:47:22.108Z,1005.83
2022-10-25T11:48:22.029Z,1005.87
2022-10-25T11:49:22.044Z,1005.83
2022-10-25T11:50:22.053Z,1005.82
2022-10-25T11:51:22.035Z,1005.79
2022-10-25T11:52:22.046Z,1005.76
2022-10-25T11:53:22.431Z,1005.76
2022-10-25T11:54:22.486Z,1005.76
2022-10-25T11:55:22.903Z,1005.82
2022-10-25T11:56:22.291Z,1005.83
2022-10-25T11:57:22.361Z,1005.82
2022-10-25T11:58:22.727Z,1005.78
2022-10-25T11:59:22.086Z,1005.8
2022-10-25T12:00:22.381Z,1005.85
2022-10-25T12:01:22.607Z,1005.87
2022-10-25T12:02:21.953Z,1005.91
2022-10-25T12:03:22.179Z,1005.84
2022-10-25T12:04:25.508Z,1005.84
2022-10-25T12:05:22.793Z,1005.84
2022-10-25T12:06:22.263Z,1005.87
2022-10-25T12:07:22.047Z,1005.82
2022-10-25T12:08:22.322Z,1005.8
2022-10-25T12:09:22.520Z,1005.82
2022-10-25T12:10:22.879Z,1005.75
2022-10-25T12:11:22.337Z,1005.79
2022-10-25T12:12:22.057Z,1005.76
2022-10-25T12:13:22.046Z,1005.75